EGYE

RAF Barkston Heath

Airport
ICAO code
EGYE
Summary
ICAO Region
EUR
ICAO Territory
Location

, England

Serving
Barkston Heath
Elevation
367 ft
Coordinates
52° 57' 44" N , 0° 33' 42" W
Metar
EGYE 160750Z 30017KT 9999 OVC035 08/04 Q1010 RMK BLU

Runways

Designator Length Width Surface Rops
18/36 810 23 ASP No/No
11/29 1282 46 ASP No/No
6/24 1831 46 ASP No/No

Airport map

Aerial View

SKYbrary Partners:

Safety knowledge contributed by: